Time;durP1;ratioP1;P1;durP2;ratioP2;P2;SDS_P1;SDS_P2;PMS_P1;PMS_P2;Temp;Humidity;BMP_temperature;BMP_pressure;BME280_temperature;BME280_humidity;BME280_pressure;Samples;Min_cycle;Max_cycle;Signal;HPM_P1;HPM_P2
2022/11/07 00:00:32;;;;;;;17.20;3.73;;;;;;;;;;1849304;77;26327;-67
2022/11/07 00:03:00;;;;;;;17.20;3.70;;;;;;;;;;1837573;77;26892;-67
2022/11/07 00:05:29;;;;;;;14.30;3.70;;;;;;;;;;1866827;75;26334;-67
2022/11/07 00:07:58;;;;;;;20.80;4.10;;;;;;;;;;1838117;77;26548;-67
2022/11/07 00:10:26;;;;;;;18.90;4.30;;;;;;;;;;1866757;77;26257;-67
2022/11/07 00:12:55;;;;;;;13.15;3.80;;;;;;;;;;1866877;76;26727;-67
2022/11/07 00:15:25;;;;;;;14.20;3.80;;;;;;;;;;1866872;77;26277;-67
2022/11/07 00:17:54;;;;;;;20.95;4.45;;;;;;;;;;1866916;76;26241;-67
2022/11/07 00:20:22;;;;;;;16.95;4.10;;;;;;;;;;1867021;76;26262;-67
2022/11/07 00:22:50;;;;;;;18.80;3.53;;;;;;;;;;1867049;76;26800;-67
2022/11/07 00:25:19;;;;;;;19.50;3.90;;;;;;;;;;1837767;77;26541;-67
2022/11/07 00:27:47;;;;;;;18.40;3.65;;;;;;;;;;1837940;77;26226;-67
2022/11/07 00:30:16;;;;;;;16.80;3.70;;;;;;;;;;1838073;77;26249;-67
2022/11/07 00:32:44;;;;;;;16.90;4.30;;;;;;;;;;1866921;76;26874;-67
2022/11/07 00:35:13;;;;;;;13.85;4.20;;;;;;;;;;1866893;77;26251;-67
2022/11/07 00:37:40;;;;;;;;;;;;;;;;;;1867232;77;26238;-67
2022/11/07 00:40:10;;;;;;;18.20;3.90;;;;;;;;;;1884623;76;26697;-67
2022/11/07 00:42:38;;;;;;;12.70;3.20;;;;;;;;;;1882038;76;27120;-67
2022/11/07 00:45:08;;;;;;;16.15;4.25;;;;;;;;;;1843960;77;27386;-67
2022/11/07 00:47:37;;;;;;;15.00;3.75;;;;;;;;;;1849598;77;26756;-67
2022/11/07 00:50:06;;;;;;;17.40;4.10;;;;;;;;;;1867054;76;26190;-67
2022/11/07 00:52:34;;;;;;;14.40;4.00;;;;;;;;;;1867247;77;26261;-67
2022/11/07 00:55:05;;;;;;;21.65;3.95;;;;;;;;;;1863953;77;26296;-67
2022/11/07 00:57:33;;;;;;;20.90;4.40;;;;;;;;;;1881127;76;26268;-67
2022/11/07 01:00:02;;;;;;;20.25;3.95;;;;;;;;;;1881181;76;26270;-67
2022/11/07 01:02:30;;;;;;;18.00;4.70;;;;;;;;;;1818759;77;26874;-67
2022/11/07 01:05:11;;;;;;;23.20;4.80;;;;;;;;;;1843781;77;26429;-67
2022/11/07 01:07:40;;;;;;;19.50;5.10;;;;;;;;;;1844525;76;26279;-67
2022/11/07 01:10:09;;;;;;;17.40;4.00;;;;;;;;;;1849982;77;26248;-67
2022/11/07 01:12:37;;;;;;;17.30;4.20;;;;;;;;;;1867011;77;26968;-67
2022/11/07 01:15:04;;;;;;;;;;;;;;;;;;1838465;77;26669;-67
2022/11/07 01:17:32;;;;;;;20.50;4.25;;;;;;;;;;1860123;76;26709;-67
2022/11/07 01:20:02;;;;;;;17.00;3.80;;;;;;;;;;1881495;76;26220;-67
2022/11/07 01:22:30;;;;;;;21.00;4.00;;;;;;;;;;1849558;77;26680;-66
2022/11/07 01:24:57;;;;;;;;;;;;;;;;;;1867315;76;26274;-67
2022/11/07 01:27:25;;;;;;;23.00;4.60;;;;;;;;;;1884577;76;26257;-67
2022/11/07 01:29:52;;;;;;;;;;;;;;;;;;1854987;76;26726;-67
2022/11/07 01:32:21;;;;;;;17.85;4.50;;;;;;;;;;1881131;76;26859;-67
2022/11/07 01:34:49;;;;;;;19.95;4.00;;;;;;;;;;1849564;77;26263;-67
2022/11/07 01:37:18;;;;;;;20.20;4.50;;;;;;;;;;1867055;76;26238;-67
2022/11/07 01:39:46;;;;;;;16.00;3.95;;;;;;;;;;1867187;76;24236;-67
2022/11/07 01:42:15;;;;;;;21.30;4.40;;;;;;;;;;1867070;76;24230;-67
2022/11/07 01:44:51;;;;;;;20.10;4.20;;;;;;;;;;1866873;76;26263;-67
2022/11/07 01:47:22;;;;;;;17.90;4.10;;;;;;;;;;1867196;77;26265;-67
2022/11/07 01:49:50;;;;;;;15.40;4.00;;;;;;;;;;1867204;77;27270;-67
2022/11/07 01:52:17;;;;;;;;;;;;;;;;;;1867060;76;27011;-67
2022/11/07 01:54:47;;;;;;;20.60;4.00;;;;;;;;;;1884682;76;24208;-67
2022/11/07 01:57:15;;;;;;;;;;;;;;;;;;1880984;76;26315;-66
2022/11/07 01:59:43;;;;;;;;;;;;;;;;;;1882153;76;26301;-67
2022/11/07 02:02:10;;;;;;;;;;;;;;;;;;1881225;76;26710;-67
2022/11/07 02:04:37;;;;;;;;;;;;;;;;;;1881498;76;25312;-67
2022/11/07 02:07:04;;;;;;;;;;;;;;;;;;1881344;76;24244;-68
2022/11/07 02:09:32;;;;;;;21.95;4.30;;;;;;;;;;1881596;76;27346;-67
2022/11/07 02:12:01;;;;;;;18.90;4.30;;;;;;;;;;1881213;76;26813;-67
2022/11/07 02:14:29;;;;;;;16.87;4.50;;;;;;;;;;1818786;77;26314;-66
2022/11/07 02:17:00;;;;;;;19.20;5.00;;;;;;;;;;1849539;77;26267;-67
2022/11/07 02:19:32;;;;;;;23.40;4.33;;;;;;;;;;1867136;76;26265;-67
2022/11/07 02:22:02;;;;;;;22.53;4.93;;;;;;;;;;1866867;77;27335;-67
2022/11/07 02:24:32;;;;;;;16.70;4.13;;;;;;;;;;1867047;76;26269;-67
2022/11/07 02:27:02;;;;;;;24.73;4.93;;;;;;;;;;1866821;76;26832;-67
2022/11/07 02:29:32;;;;;;;16.37;4.87;;;;;;;;;;1867104;76;26684;-67
2022/11/07 02:32:01;;;;;;;14.97;4.20;;;;;;;;;;1866901;76;26804;-67
2022/11/07 02:34:29;;;;;;;20.67;4.87;;;;;;;;;;1867082;76;26237;-67
2022/11/07 02:36:59;;;;;;;22.00;4.83;;;;;;;;;;1866838;76;26928;-67
2022/11/07 02:39:34;;;;;;;17.27;4.43;;;;;;;;;;1867034;76;26246;-67
2022/11/07 02:42:04;;;;;;;24.93;5.00;;;;;;;;;;1866835;77;26358;-67
2022/11/07 02:44:36;;;;;;;17.30;5.27;;;;;;;;;;1867096;77;26638;-67
2022/11/07 02:47:04;;;;;;;22.40;5.53;;;;;;;;;;1866825;77;26285;-67
2022/11/07 02:49:34;;;;;;;25.70;5.10;;;;;;;;;;1837566;77;26758;-67
2022/11/07 02:52:04;;;;;;;30.27;5.27;;;;;;;;;;1866834;76;26904;-67
2022/11/07 02:54:34;;;;;;;27.37;5.50;;;;;;;;;;1866882;76;27395;-67
2022/11/07 02:57:03;;;;;;;24.13;5.20;;;;;;;;;;1866957;77;26365;-67
2022/11/07 02:59:31;;;;;;;26.17;5.47;;;;;;;;;;1867464;76;26245;-67
2022/11/07 03:02:01;;;;;;;23.77;5.67;;;;;;;;;;1812960;77;26273;-67
2022/11/07 03:04:30;;;;;;;18.60;5.17;;;;;;;;;;1867349;77;26338;-67
2022/11/07 03:06:59;;;;;;;25.90;5.43;;;;;;;;;;1866686;74;26551;-67
2022/11/07 03:09:30;;;;;;;27.70;6.20;;;;;;;;;;1867099;77;26277;-67
2022/11/07 03:11:58;;;;;;;23.07;5.63;;;;;;;;;;1868132;76;26261;-67
2022/11/07 03:14:26;;;;;;;24.33;4.80;;;;;;;;;;1867117;76;26317;-67
2022/11/07 03:16:56;;;;;;;19.80;5.53;;;;;;;;;;1837505;77;26257;-67
2022/11/07 03:19:25;;;;;;;30.77;5.97;;;;;;;;;;1867793;77;26256;-67
2022/11/07 03:21:55;;;;;;;27.20;5.57;;;;;;;;;;1838366;77;26195;-67
2022/11/07 03:24:23;;;;;;;26.67;6.50;;;;;;;;;;1837987;77;26278;-67
2022/11/07 03:26:52;;;;;;;27.03;6.00;;;;;;;;;;1866975;76;26487;-67
2022/11/07 03:29:21;;;;;;;24.73;5.93;;;;;;;;;;1837889;77;26550;-67
2022/11/07 03:31:49;;;;;;;28.17;6.90;;;;;;;;;;1837845;77;26695;-66
2022/11/07 03:34:17;;;;;;;31.13;6.30;;;;;;;;;;1867098;76;26651;-67
2022/11/07 03:36:46;;;;;;;24.63;5.77;;;;;;;;;;1838132;77;26201;-67
2022/11/07 03:39:14;;;;;;;25.67;6.00;;;;;;;;;;1844163;77;26271;-67
2022/11/07 03:41:44;;;;;;;30.20;6.07;;;;;;;;;;1849740;77;26670;-67
2022/11/07 03:44:12;;;;;;;32.97;6.30;;;;;;;;;;1867171;77;26857;-67
2022/11/07 03:46:41;;;;;;;28.37;6.70;;;;;;;;;;1866752;77;26308;-67
2022/11/07 03:49:09;;;;;;;30.90;6.60;;;;;;;;;;1813030;77;26531;-67
2022/11/07 03:51:39;;;;;;;22.80;6.20;;;;;;;;;;1837797;77;26262;-67
2022/11/07 03:54:08;;;;;;;29.67;6.10;;;;;;;;;;1866995;76;26242;-67
2022/11/07 03:56:36;;;;;;;27.27;7.07;;;;;;;;;;1837941;77;26534;-67
2022/11/07 03:59:07;;;;;;;25.00;5.90;;;;;;;;;;1837742;77;26324;-67
2022/11/07 04:01:35;;;;;;;34.00;6.70;;;;;;;;;;1866890;76;26261;-67
2022/11/07 04:04:04;;;;;;;32.40;6.35;;;;;;;;;;1839417;77;26262;-67
2022/11/07 04:06:32;;;;;;;31.90;6.30;;;;;;;;;;1866874;76;26301;-67
2022/11/07 04:09:01;;;;;;;30.27;6.93;;;;;;;;;;1844024;76;26368;-67
2022/11/07 04:17:21;;;;;;;26.47;5.87;;;;;;;;;;1842074;77;26269;-68
2022/11/07 04:19:50;;;;;;;27.95;5.40;;;;;;;;;;1866774;76;26249;-67
2022/11/07 04:22:19;;;;;;;25.50;5.77;;;;;;;;;;1867223;76;26639;-67
2022/11/07 04:24:47;;;;;;;28.25;6.10;;;;;;;;;;1867408;76;26216;-67
2022/11/07 04:30:17;;;;;;;30.00;6.00;;;;;;;;;;1842608;77;26773;-69
2022/11/07 04:32:34;;;;;;;21.00;5.80;;;;;;;;;;1864824;76;26258;-69
2022/11/07 04:35:03;;;;;;;26.90;6.10;;;;;;;;;;1867028;76;27417;-69
2022/11/07 04:37:31;;;;;;;30.00;6.20;;;;;;;;;;1866983;77;27366;-69
2022/11/07 04:39:59;;;;;;;;;;;;;;;;;;1867238;76;26194;-69
2022/11/07 04:42:27;;;;;;;18.97;4.67;;;;;;;;;;1884557;76;26312;-69
2022/11/07 04:44:57;;;;;;;19.50;4.85;;;;;;;;;;1824020;76;26350;-69
2022/11/07 04:47:26;;;;;;;22.27;4.93;;;;;;;;;;1849738;77;26264;-69
2022/11/07 04:49:54;;;;;;;28.40;5.60;;;;;;;;;;1867103;77;26770;-69
2022/11/07 04:52:23;;;;;;;28.45;5.25;;;;;;;;;;1867137;76;26223;-69
2022/11/07 04:54:52;;;;;;;24.90;4.80;;;;;;;;;;1867214;76;26256;-69
2022/11/07 04:57:20;;;;;;;23.47;4.67;;;;;;;;;;1866708;76;26193;-69
2022/11/07 04:59:47;;;;;;;;;;;;;;;;;;1867178;77;26220;-69
2022/11/07 05:02:16;;;;;;;19.00;4.45;;;;;;;;;;1782462;76;447340;-69
2022/11/07 05:04:44;;;;;;;24.20;5.30;;;;;;;;;;1778380;80;26244;-69
2022/11/07 05:07:13;;;;;;;24.90;5.85;;;;;;;;;;1778503;80;27469;-69
2022/11/07 05:09:42;;;;;;;14.00;3.70;;;;;;;;;;1778391;79;26825;-69
2022/11/07 05:12:10;;;;;;;22.37;4.50;;;;;;;;;;1778364;80;27212;-69
2022/11/07 05:14:39;;;;;;;19.33;4.77;;;;;;;;;;1754023;80;26375;-69
2022/11/07 05:17:10;;;;;;;18.93;4.33;;;;;;;;;;1727009;82;26578;-69
2022/11/07 05:19:41;;;;;;;19.27;4.20;;;;;;;;;;1779907;80;26595;-69
2022/11/07 05:24:56;;;;;;;22.33;5.43;;;;;;;;;;1780173;80;26305;-68
2022/11/07 05:27:25;;;;;;;26.17;5.03;;;;;;;;;;1779808;80;26371;-68
2022/11/07 05:29:53;;;;;;;23.07;5.20;;;;;;;;;;1779955;80;26297;-68
2022/11/07 05:32:22;;;;;;;25.97;5.17;;;;;;;;;;1755451;80;26297;-68
2022/11/07 05:34:50;;;;;;;22.33;5.33;;;;;;;;;;1780005;80;26726;-67
2022/11/07 05:37:19;;;;;;;26.47;5.77;;;;;;;;;;1755758;80;26289;-68
2022/11/07 05:39:47;;;;;;;21.83;5.07;;;;;;;;;;1790504;80;26304;-67
2022/11/07 05:42:16;;;;;;;21.73;4.90;;;;;;;;;;1779836;80;26273;-68
2022/11/07 05:44:45;;;;;;;27.13;5.40;;;;;;;;;;1779860;80;26332;-68
2022/11/07 05:47:14;;;;;;;26.70;5.10;;;;;;;;;;1779529;79;27366;-68
2022/11/07 05:49:42;;;;;;;24.07;5.37;;;;;;;;;;1790543;80;26348;-68
2022/11/07 05:52:10;;;;;;;27.83;5.43;;;;;;;;;;1779850;80;26275;-68
2022/11/07 05:54:39;;;;;;;26.37;5.87;;;;;;;;;;1779976;80;26347;-67
2022/11/07 05:57:08;;;;;;;29.37;6.30;;;;;;;;;;1779461;80;24220;-67
2022/11/07 05:59:38;;;;;;;27.73;5.73;;;;;;;;;;1790179;79;26304;-67
2022/11/07 06:02:06;;;;;;;27.87;6.53;;;;;;;;;;1779349;80;26277;-67
2022/11/07 06:04:35;;;;;;;24.33;6.33;;;;;;;;;;1779560;80;26387;-68
2022/11/07 06:07:04;;;;;;;26.10;5.80;;;;;;;;;;1755495;80;26289;-67
2022/11/07 06:09:32;;;;;;;27.07;5.87;;;;;;;;;;1756004;80;26325;-68
2022/11/07 06:12:02;;;;;;;32.17;5.93;;;;;;;;;;1779715;80;26297;-67
2022/11/07 06:14:31;;;;;;;28.50;6.17;;;;;;;;;;1756466;80;26293;-68
2022/11/07 06:16:59;;;;;;;25.30;5.23;;;;;;;;;;1779610;80;26281;-67
2022/11/07 06:19:29;;;;;;;25.90;5.83;;;;;;;;;;1779997;80;26943;-68
2022/11/07 06:21:59;;;;;;;21.30;5.65;;;;;;;;;;1779650;80;26321;-68
2022/11/07 06:24:27;;;;;;;23.83;5.87;;;;;;;;;;1766936;80;27347;-68
2022/11/07 06:26:56;;;;;;;22.77;5.40;;;;;;;;;;1779721;80;26301;-67
2022/11/07 06:29:26;;;;;;;27.30;5.63;;;;;;;;;;1780055;80;26305;-68
2022/11/07 06:31:56;;;;;;;29.80;6.23;;;;;;;;;;1749557;82;26339;-67
2022/11/07 06:34:25;;;;;;;23.20;4.63;;;;;;;;;;1779677;80;26282;-67
2022/11/07 06:36:53;;;;;;;23.40;5.55;;;;;;;;;;1777551;80;26751;-67
2022/11/07 06:39:22;;;;;;;21.67;5.73;;;;;;;;;;1779879;80;27433;-67
2022/11/07 06:41:50;;;;;;;24.50;5.80;;;;;;;;;;1790152;79;26317;-67
2022/11/07 06:44:20;;;;;;;19.40;5.10;;;;;;;;;;1755675;80;27486;-67
2022/11/07 06:46:48;;;;;;;29.10;5.63;;;;;;;;;;1779552;80;26308;-67
2022/11/07 06:49:17;;;;;;;25.05;5.60;;;;;;;;;;1779704;80;26389;-67
2022/11/07 06:51:47;;;;;;;24.70;5.07;;;;;;;;;;1779369;80;26472;-67
2022/11/07 06:54:15;;;;;;;22.05;5.65;;;;;;;;;;1779778;80;27050;-67
2022/11/07 06:56:45;;;;;;;23.80;5.55;;;;;;;;;;1779319;80;26848;-67
2022/11/07 06:59:13;;;;;;;20.00;5.65;;;;;;;;;;1755575;80;26337;-67
2022/11/07 07:01:42;;;;;;;20.45;5.55;;;;;;;;;;1778629;79;26305;-67
2022/11/07 07:04:12;;;;;;;21.90;5.75;;;;;;;;;;1755637;80;26390;-67
2022/11/07 07:06:42;;;;;;;21.35;5.30;;;;;;;;;;1780071;80;26952;-72
2022/11/07 07:09:11;;;;;;;34.10;6.67;;;;;;;;;;1780387;79;26287;-70
2022/11/07 07:11:43;;;;;;;23.00;5.00;;;;;;;;;;1780183;80;26325;-69
2022/11/07 07:14:12;;;;;;;23.40;5.45;;;;;;;;;;1780160;80;26293;-72
2022/11/07 07:16:40;;;;;;;23.70;6.00;;;;;;;;;;1755316;80;26681;-71
2022/11/07 07:19:10;;;;;;;19.80;4.60;;;;;;;;;;1779562;80;26972;-71
2022/11/07 07:21:39;;;;;;;19.00;5.40;;;;;;;;;;1779372;80;26355;-72
2022/11/07 07:24:08;;;;;;;17.10;5.20;;;;;;;;;;1780108;80;26375;-73
2022/11/07 07:26:36;;;;;;;16.90;4.75;;;;;;;;;;1779783;80;26336;-72
2022/11/07 07:29:04;;;;;;;21.77;5.50;;;;;;;;;;1779851;80;26305;-72
2022/11/07 07:31:33;;;;;;;16.67;3.77;;;;;;;;;;1755175;80;26889;-72
2022/11/07 07:34:01;;;;;;;14.67;4.00;;;;;;;;;;1779292;80;26281;-72
2022/11/07 07:36:31;;;;;;;15.60;3.80;;;;;;;;;;1779344;80;26371;-71
2022/11/07 07:39:00;;;;;;;16.50;4.85;;;;;;;;;;1756219;80;26282;-73
2022/11/07 07:41:28;;;;;;;16.50;4.40;;;;;;;;;;1779650;80;26704;-71
2022/11/07 07:43:57;;;;;;;21.60;5.25;;;;;;;;;;1780031;80;26289;-73
2022/11/07 07:46:25;;;;;;;17.97;4.70;;;;;;;;;;1755393;80;26298;-71
2022/11/07 07:48:54;;;;;;;12.87;4.27;;;;;;;;;;1779951;80;26318;-72
2022/11/07 07:51:22;;;;;;;22.15;4.80;;;;;;;;;;1755265;80;26290;-72
2022/11/07 07:53:50;;;;;;;19.55;4.55;;;;;;;;;;1755479;80;26281;-73
2022/11/07 07:56:19;;;;;;;18.20;4.55;;;;;;;;;;1779051;80;26297;-71
2022/11/07 07:58:49;;;;;;;14.77;4.73;;;;;;;;;;1779653;80;26259;-71
2022/11/07 08:01:17;;;;;;;20.05;4.95;;;;;;;;;;1755526;80;26231;-72
2022/11/07 08:03:45;;;;;;;23.95;5.15;;;;;;;;;;1755973;80;27389;-72
2022/11/07 08:06:14;;;;;;;18.65;5.00;;;;;;;;;;1758807;80;26405;-72
2022/11/07 08:08:42;;;;;;;20.85;4.55;;;;;;;;;;1780403;80;26387;-71
2022/11/07 08:11:11;;;;;;;19.00;4.50;;;;;;;;;;1779961;79;26314;-73
2022/11/07 08:13:40;;;;;;;21.60;5.20;;;;;;;;;;1779620;80;26285;-73
2022/11/07 08:16:09;;;;;;;16.30;5.00;;;;;;;;;;1779656;80;26522;-72
2022/11/07 08:18:39;;;;;;;21.87;5.67;;;;;;;;;;1781193;80;26318;-72
2022/11/07 08:21:08;;;;;;;21.90;4.90;;;;;;;;;;1781332;80;26224;-71
2022/11/07 08:23:37;;;;;;;25.00;5.70;;;;;;;;;;1792387;79;26241;-72
2022/11/07 08:26:06;;;;;;;19.73;5.03;;;;;;;;;;1781239;80;26257;-72
2022/11/07 08:28:36;;;;;;;22.47;5.40;;;;;;;;;;1781136;80;26308;-73
2022/11/07 08:31:06;;;;;;;17.97;4.90;;;;;;;;;;1781212;80;26254;-74
2022/11/07 08:33:34;;;;;;;19.17;5.00;;;;;;;;;;1781218;80;26257;-73
2022/11/07 08:36:04;;;;;;;22.07;5.70;;;;;;;;;;1757349;80;26747;-73
2022/11/07 08:38:33;;;;;;;29.27;5.87;;;;;;;;;;1780449;80;26762;-74
2022/11/07 08:41:02;;;;;;;19.07;5.30;;;;;;;;;;1780146;80;26707;-73
2022/11/07 08:43:30;;;;;;;21.10;5.00;;;;;;;;;;1779656;80;26558;-73
2022/11/07 08:45:59;;;;;;;21.63;5.50;;;;;;;;;;1779969;80;26356;-72
2022/11/07 08:48:27;;;;;;;25.55;6.05;;;;;;;;;;1779966;80;26372;-73
2022/11/07 08:50:57;;;;;;;23.40;5.80;;;;;;;;;;1779757;80;26865;-72
2022/11/07 08:53:26;;;;;;;23.10;5.70;;;;;;;;;;1779793;80;26295;-72
2022/11/07 08:56:01;;;;;;;22.23;5.23;;;;;;;;;;1780050;80;26278;-73
2022/11/07 08:58:30;;;;;;;20.60;5.50;;;;;;;;;;1781137;80;26289;-72
2022/11/07 09:00:59;;;;;;;28.90;5.70;;;;;;;;;;1780150;80;26299;-72
2022/11/07 09:03:28;;;;;;;25.35;5.40;;;;;;;;;;1779968;80;26809;-72
2022/11/07 09:05:57;;;;;;;27.27;5.80;;;;;;;;;;1779454;80;26410;-73
2022/11/07 09:08:25;;;;;;;26.70;5.80;;;;;;;;;;1779828;80;26281;-73
2022/11/07 09:10:53;;;;;;;30.05;5.00;;;;;;;;;;1779352;79;26336;-73
2022/11/07 09:13:22;;;;;;;26.05;6.10;;;;;;;;;;1778792;79;26298;-73
2022/11/07 09:15:50;;;;;;;21.63;5.37;;;;;;;;;;1755245;80;26356;-73
2022/11/07 09:18:18;;;;;;;26.70;5.40;;;;;;;;;;1755190;80;26432;-72
2022/11/07 09:20:47;;;;;;;28.75;5.85;;;;;;;;;;1755439;80;26777;-72
2022/11/07 09:23:15;;;;;;;22.07;5.80;;;;;;;;;;1779509;80;26298;-71
2022/11/07 09:25:44;;;;;;;19.60;4.70;;;;;;;;;;1755345;80;26742;-71
2022/11/07 09:28:13;;;;;;;17.85;5.10;;;;;;;;;;1779469;80;26289;-71
2022/11/07 09:30:41;;;;;;;20.55;4.90;;;;;;;;;;1779358;80;26351;-71
2022/11/07 09:33:10;;;;;;;18.87;4.80;;;;;;;;;;1779060;80;26685;-71
2022/11/07 09:35:38;;;;;;;23.75;5.75;;;;;;;;;;1755140;80;26354;-71
2022/11/07 09:38:06;;;;;;;21.95;5.10;;;;;;;;;;1754993;80;26273;-72
2022/11/07 09:40:44;;;;;;;17.70;5.05;;;;;;;;;;1779245;80;26297;-73
2022/11/07 09:43:16;;;;;;;22.50;5.20;;;;;;;;;;1779574;80;26537;-71
2022/11/07 09:45:47;;;;;;;18.10;5.00;;;;;;;;;;1779311;80;26291;-72
2022/11/07 09:48:18;;;;;;;14.80;4.80;;;;;;;;;;1779674;79;26378;-71
2022/11/07 09:50:48;;;;;;;;;;;;;;;;;;1781665;80;26248;-69
2022/11/07 09:53:17;;;;;;;25.10;5.10;;;;;;;;;;1778192;80;26728;-71
2022/11/07 09:55:44;;;;;;;;;;;;;;;;;;1777570;80;26768;-71
2022/11/07 09:58:13;;;;;;;15.10;4.90;;;;;;;;;;1778101;80;26816;-72
2022/11/07 10:00:42;;;;;;;17.20;4.60;;;;;;;;;;1749656;82;26328;-71
2022/11/07 10:03:11;;;;;;;20.00;5.00;;;;;;;;;;1779457;80;26303;-71
2022/11/07 10:05:42;;;;;;;20.33;5.20;;;;;;;;;;1779209;80;26306;-72
2022/11/07 10:08:11;;;;;;;19.00;5.10;;;;;;;;;;1779352;80;26936;-71
2022/11/07 10:10:38;;;;;;;;;;;;;;;;;;1779158;79;26909;-73
2022/11/07 10:13:12;;;;;;;14.10;4.00;;;;;;;;;;1777561;80;27418;-73
2022/11/07 10:15:45;;;;;;;9.75;3.60;;;;;;;;;;1789955;79;26802;-72
2022/11/07 10:18:15;;;;;;;13.10;3.50;;;;;;;;;;1779464;80;26277;-71
2022/11/07 10:20:45;;;;;;;10.00;3.50;;;;;;;;;;1779617;80;27491;-71
2022/11/07 10:23:19;;;;;;;9.15;3.35;;;;;;;;;;1778823;80;26368;-72
2022/11/07 10:25:49;;;;;;;10.05;3.45;;;;;;;;;;1778975;80;26830;-71
2022/11/07 10:28:18;;;;;;;9.50;3.70;;;;;;;;;;1779391;80;26354;-71
2022/11/07 10:30:48;;;;;;;9.50;3.70;;;;;;;;;;1779412;80;26295;-71
2022/11/07 10:33:26;;;;;;;14.65;4.55;;;;;;;;;;1779675;80;26657;-72
2022/11/07 10:35:54;;;;;;;;;;;;;;;;;;1778860;80;26291;-72
2022/11/07 10:38:21;;;;;;;;;;;;;;;;;;1803647;79;26528;-71
2022/11/07 10:40:50;;;;;;;14.20;4.00;;;;;;;;;;1778076;80;26288;-72
2022/11/07 10:43:18;;;;;;;;;;;;;;;;;;1753789;80;26843;-70
2022/11/07 10:45:46;;;;;;;9.30;3.80;;;;;;;;;;1778531;80;26204;-72
2022/11/07 10:48:15;;;;;;;10.80;3.50;;;;;;;;;;1726287;82;27347;-72
2022/11/07 10:50:50;;;;;;;12.20;3.40;;;;;;;;;;1779383;80;26585;-72
2022/11/07 10:53:18;;;;;;;;;;;;;;;;;;1779531;80;25513;-72
2022/11/07 10:55:45;;;;;;;;;;;;;;;;;;1777275;80;26407;-73
2022/11/07 10:58:12;;;;;;;;;;;;;;;;;;1778123;80;26229;-73
2022/11/07 11:00:39;;;;;;;;;;;;;;;;;;1778137;80;24422;-73
2022/11/07 11:03:07;;;;;;;;;;;;;;;;;;1751662;80;24809;-73
2022/11/07 11:05:42;;;;;;;6.30;2.60;;;;;;;;;;1776572;80;26732;-73
2022/11/07 11:08:14;;;;;;;5.40;2.60;;;;;;;;;;1776287;80;26760;-73
2022/11/07 11:10:41;;;;;;;;;;;;;;;;;;1776592;78;24289;-73
2022/11/07 11:13:08;;;;;;;;;;;;;;;;;;1776664;80;24149;-73
2022/11/07 11:15:43;;;;;;;6.30;2.70;;;;;;;;;;1776395;80;26284;-73
2022/11/07 11:18:10;;;;;;;;;;;;;;;;;;1776553;80;26116;-73
2022/11/07 11:20:40;;;;;;;6.90;2.30;;;;;;;;;;1776508;80;24299;-73
2022/11/07 11:23:15;;;;;;;10.30;3.00;;;;;;;;;;1749734;82;26270;-73
2022/11/07 11:25:44;;;;;;;8.83;3.03;;;;;;;;;;1777732;80;24306;-73
2022/11/07 11:28:15;;;;;;;8.13;3.10;;;;;;;;;;1779982;80;26252;-74
2022/11/07 11:30:46;;;;;;;10.17;4.90;;;;;;;;;;1779795;80;25203;-73
2022/11/07 11:33:16;;;;;;;8.60;4.80;;;;;;;;;;1779439;80;26294;-73
2022/11/07 11:35:46;;;;;;;8.05;3.55;;;;;;;;;;1777565;80;26352;-73
2022/11/07 11:38:17;;;;;;;9.97;3.03;;;;;;;;;;1779032;80;25276;-73
2022/11/07 11:40:47;;;;;;;10.60;3.50;;;;;;;;;;1778116;80;26943;-73
2022/11/07 11:43:16;;;;;;;;;;;;;;;;;;1778049;80;24772;-74
2022/11/07 11:45:46;;;;;;;10.90;3.30;;;;;;;;;;1777906;80;26367;-74
2022/11/07 11:48:17;;;;;;;11.23;3.50;;;;;;;;;;1752804;80;26548;-74
2022/11/07 11:50:47;;;;;;;9.50;3.30;;;;;;;;;;1777222;80;26308;-73
2022/11/07 11:53:14;;;;;;;;;;;;;;;;;;1778072;80;25247;-73
2022/11/07 11:55:44;;;;;;;10.20;3.65;;;;;;;;;;1777478;80;26451;-73
2022/11/07 11:58:15;;;;;;;9.60;3.30;;;;;;;;;;1777686;80;26291;-73
2022/11/07 12:00:46;;;;;;;14.80;4.15;;;;;;;;;;1777685;80;26293;-73
2022/11/07 12:03:18;;;;;;;13.80;3.50;;;;;;;;;;1778199;80;26337;-73
2022/11/07 12:05:45;;;;;;;;;;;;;;;;;;1777893;80;26766;-73
2022/11/07 12:08:18;;;;;;;14.10;4.13;;;;;;;;;;1778144;80;26926;-73
2022/11/07 12:10:48;;;;;;;13.55;4.55;;;;;;;;;;1778061;80;26343;-72
2022/11/07 12:13:18;;;;;;;16.10;5.60;;;;;;;;;;1778077;79;26392;-72
2022/11/07 12:15:51;;;;;;;16.10;5.97;;;;;;;;;;1778044;80;26350;-72
2022/11/07 12:18:23;;;;;;;20.37;5.73;;;;;;;;;;1778205;80;26290;-72
2022/11/07 12:20:54;;;;;;;19.07;6.00;;;;;;;;;;1778059;80;26307;-72
2022/11/07 12:23:25;;;;;;;21.65;6.25;;;;;;;;;;1778007;80;26355;-72
2022/11/07 12:25:55;;;;;;;15.90;6.07;;;;;;;;;;1777780;80;26293;-72
2022/11/07 12:28:33;;;;;;;20.13;5.80;;;;;;;;;;1777955;80;24856;-72
2022/11/07 12:31:04;;;;;;;21.90;6.47;;;;;;;;;;1753342;80;26296;-72
2022/11/07 12:33:34;;;;;;;22.67;6.07;;;;;;;;;;1777617;80;24291;-73
2022/11/07 12:36:05;;;;;;;16.25;6.95;;;;;;;;;;1777626;80;24604;-72
2022/11/07 12:38:48;;;;;;;16.50;6.23;;;;;;;;;;1778091;80;24322;-73
2022/11/07 12:41:19;;;;;;;25.60;6.97;;;;;;;;;;1777753;80;26373;-73
2022/11/07 12:43:50;;;;;;;26.53;7.00;;;;;;;;;;1777775;80;24225;-73
2022/11/07 12:46:20;;;;;;;23.93;7.13;;;;;;;;;;1753576;80;26770;-73
2022/11/07 12:48:52;;;;;;;26.03;7.63;;;;;;;;;;1777286;80;24195;-73
2022/11/07 12:51:24;;;;;;;27.00;8.40;;;;;;;;;;1777899;80;26441;-73
2022/11/07 12:53:54;;;;;;;28.70;7.40;;;;;;;;;;1777806;80;24224;-73
2022/11/07 12:56:24;;;;;;;34.27;8.83;;;;;;;;;;1754687;80;24220;-73
2022/11/07 12:58:53;;;;;;;25.57;8.10;;;;;;;;;;1779848;80;24204;-73
2022/11/07 13:01:23;;;;;;;25.85;7.90;;;;;;;;;;1779805;80;26259;-73
2022/11/07 13:03:58;;;;;;;30.57;7.80;;;;;;;;;;1779776;80;24200;-73
2022/11/07 13:06:28;;;;;;;30.07;8.40;;;;;;;;;;1779765;80;26256;-73
2022/11/07 13:09:00;;;;;;;32.05;9.00;;;;;;;;;;1779611;80;26284;-73
2022/11/07 13:11:30;;;;;;;33.00;8.23;;;;;;;;;;1755326;80;26315;-73
2022/11/07 13:14:06;;;;;;;25.70;7.80;;;;;;;;;;1779975;80;26730;-73
2022/11/07 13:16:36;;;;;;;25.57;7.00;;;;;;;;;;1780006;80;26716;-73
2022/11/07 13:19:10;;;;;;;24.20;7.13;;;;;;;;;;1779749;80;26707;-73
2022/11/07 13:21:42;;;;;;;23.80;7.70;;;;;;;;;;1779010;80;26394;-72
2022/11/07 13:24:18;;;;;;;29.35;7.70;;;;;;;;;;1778819;80;26340;-72
2022/11/07 13:26:47;;;;;;;26.50;9.20;;;;;;;;;;1777984;80;26378;-73
2022/11/07 13:29:35;;;;;;;28.70;8.60;;;;;;;;;;1778474;80;26324;-73
2022/11/07 13:32:02;;;;;;;;;;;;;;;;;;1779733;80;26310;-72
2022/11/07 13:34:32;;;;;;;28.80;9.50;;;;;;;;;;1779884;80;27125;-73
2022/11/07 13:37:02;;;;;;;30.80;9.07;;;;;;;;;;1779117;80;24247;-73
2022/11/07 13:39:30;;;;;;;36.40;8.55;;;;;;;;;;1779870;80;24193;-72
2022/11/07 13:41:59;;;;;;;35.40;8.30;;;;;;;;;;1755686;80;26280;-73
2022/11/07 13:44:26;;;;;;;;;;;;;;;;;;1779928;80;26295;-73
2022/11/07 13:46:56;;;;;;;30.80;8.80;;;;;;;;;;1779829;80;24143;-73
2022/11/07 13:49:26;;;;;;;35.70;8.90;;;;;;;;;;1778103;80;26830;-73
2022/11/07 13:51:57;;;;;;;32.60;8.80;;;;;;;;;;1754016;80;26323;-73
2022/11/07 13:54:27;;;;;;;35.35;9.25;;;;;;;;;;1778118;80;24231;-73
2022/11/07 13:56:57;;;;;;;32.37;10.40;;;;;;;;;;1777761;80;25467;-73
2022/11/07 13:59:30;;;;;;;37.60;10.55;;;;;;;;;;1724430;82;26304;-73
2022/11/07 14:01:59;;;;;;;36.33;9.70;;;;;;;;;;1748469;82;26326;-73
2022/11/07 14:04:28;;;;;;;31.70;10.53;;;;;;;;;;1778216;80;24220;-72
2022/11/07 14:06:57;;;;;;;46.47;18.67;;;;;;;;;;1775727;81;26370;-72
2022/11/07 14:09:27;;;;;;;47.37;18.67;;;;;;;;;;1776162;81;27433;-73
2022/11/07 14:11:57;;;;;;;38.45;11.90;;;;;;;;;;1776094;80;26437;-73
2022/11/07 14:14:26;;;;;;;32.90;10.40;;;;;;;;;;1776264;81;24293;-73
2022/11/07 14:16:57;;;;;;;32.30;10.50;;;;;;;;;;1775982;81;24230;-72
2022/11/07 14:19:27;;;;;;;32.60;9.70;;;;;;;;;;1776131;81;26303;-72
2022/11/07 14:21:55;;;;;;;31.20;9.40;;;;;;;;;;1741065;82;26303;-73
2022/11/07 14:24:22;;;;;;;;;;;;;;;;;;1741425;82;26898;-72
2022/11/07 14:27:01;;;;;;;28.90;8.80;;;;;;;;;;1777532;80;24293;-73
2022/11/07 14:29:30;;;;;;;37.20;9.20;;;;;;;;;;1741563;82;26324;-73
2022/11/07 14:31:59;;;;;;;32.10;8.90;;;;;;;;;;1741452;82;24237;-73
2022/11/07 14:34:28;;;;;;;31.10;8.70;;;;;;;;;;1741297;82;26387;-73
2022/11/07 14:36:57;;;;;;;28.45;8.40;;;;;;;;;;1741416;82;24917;-73
2022/11/07 14:39:27;;;;;;;34.30;8.90;;;;;;;;;;1776799;80;24232;-73
2022/11/07 14:41:56;;;;;;;30.90;8.90;;;;;;;;;;1776194;80;24249;-73
2022/11/07 14:44:26;;;;;;;29.40;8.40;;;;;;;;;;1754321;80;26313;-73
2022/11/07 14:46:55;;;;;;;30.00;8.80;;;;;;;;;;1778148;80;24189;-73
2022/11/07 14:49:22;;;;;;;;;;;;;;;;;;1778181;80;26836;-73
2022/11/07 14:51:51;;;;;;;26.70;7.90;;;;;;;;;;1778269;80;26750;-73
2022/11/07 14:54:20;;;;;;;21.50;6.80;;;;;;;;;;1778195;80;26736;-73
2022/11/07 14:56:51;;;;;;;24.60;7.30;;;;;;;;;;1777910;80;27204;-75
2022/11/07 14:59:21;;;;;;;23.63;6.83;;;;;;;;;;1778183;80;26771;-73
2022/11/07 15:01:54;;;;;;;26.20;6.77;;;;;;;;;;1776958;80;26362;-73
2022/11/07 15:04:28;;;;;;;30.60;14.20;;;;;;;;;;1776610;80;26299;-73